sensor_id;sensor_type;location;lat;lon;timestamp;P1;durP1;ratioP1;P2;durP2;ratioP2
29370;SDS011;16357;52.188;7.838;2024-03-08T00:00:06;37.65;;;21.08;;
29370;SDS011;16357;52.188;7.838;2024-03-08T00:02:44;34.55;;;19.52;;
29370;SDS011;16357;52.188;7.838;2024-03-08T00:05:11;39.92;;;20.80;;
29370;SDS011;16357;52.188;7.838;2024-03-08T00:07:39;39.45;;;21.73;;
29370;SDS011;16357;52.188;7.838;2024-03-08T00:10:07;38.65;;;21.35;;
29370;SDS011;16357;52.188;7.838;2024-03-08T00:12:40;37.85;;;21.17;;
29370;SDS011;16357;52.188;7.838;2024-03-08T00:15:11;36.78;;;19.85;;
29370;SDS011;16357;52.188;7.838;2024-03-08T00:17:41;37.28;;;20.95;;
29370;SDS011;16357;52.188;7.838;2024-03-08T00:20:09;38.88;;;21.00;;
29370;SDS011;16357;52.188;7.838;2024-03-08T00:22:36;36.47;;;20.60;;
29370;SDS011;16357;52.188;7.838;2024-03-08T00:25:04;38.30;;;20.92;;
29370;SDS011;16357;52.188;7.838;2024-03-08T00:27:31;35.90;;;21.20;;
29370;SDS011;16357;52.188;7.838;2024-03-08T00:29:58;37.92;;;20.35;;
29370;SDS011;16357;52.188;7.838;2024-03-08T00:32:24;35.45;;;19.95;;
29370;SDS011;16357;52.188;7.838;2024-03-08T00:34:51;39.00;;;21.60;;
29370;SDS011;16357;52.188;7.838;2024-03-08T00:37:20;41.42;;;20.92;;
29370;SDS011;16357;52.188;7.838;2024-03-08T00:39:51;34.67;;;20.77;;
29370;SDS011;16357;52.188;7.838;2024-03-08T00:42:18;32.25;;;18.60;;
29370;SDS011;16357;52.188;7.838;2024-03-08T00:44:46;32.13;;;19.08;;
29370;SDS011;16357;52.188;7.838;2024-03-08T00:47:14;35.58;;;20.20;;
29370;SDS011;16357;52.188;7.838;2024-03-08T00:49:41;37.88;;;21.42;;
29370;SDS011;16357;52.188;7.838;2024-03-08T00:52:08;34.42;;;19.00;;
29370;SDS011;16357;52.188;7.838;2024-03-08T00:54:35;39.30;;;20.80;;
29370;SDS011;16357;52.188;7.838;2024-03-08T00:57:04;38.83;;;19.95;;
29370;SDS011;16357;52.188;7.838;2024-03-08T00:59:31;39.25;;;21.23;;
29370;SDS011;16357;52.188;7.838;2024-03-08T01:02:01;32.50;;;20.15;;
29370;SDS011;16357;52.188;7.838;2024-03-08T01:04:28;37.15;;;20.52;;
29370;SDS011;16357;52.188;7.838;2024-03-08T01:06:55;38.60;;;21.67;;
29370;SDS011;16357;52.188;7.838;2024-03-08T01:09:23;36.28;;;20.52;;
29370;SDS011;16357;52.188;7.838;2024-03-08T01:11:50;36.30;;;20.63;;
29370;SDS011;16357;52.188;7.838;2024-03-08T01:14:16;37.63;;;21.45;;
29370;SDS011;16357;52.188;7.838;2024-03-08T01:16:43;35.33;;;21.52;;
29370;SDS011;16357;52.188;7.838;2024-03-08T01:19:09;34.65;;;19.88;;
29370;SDS011;16357;52.188;7.838;2024-03-08T01:21:36;35.00;;;21.02;;
29370;SDS011;16357;52.188;7.838;2024-03-08T01:24:03;33.10;;;20.75;;
29370;SDS011;16357;52.188;7.838;2024-03-08T01:26:30;36.78;;;21.27;;
29370;SDS011;16357;52.188;7.838;2024-03-08T01:28:56;36.08;;;21.27;;
29370;SDS011;16357;52.188;7.838;2024-03-08T01:31:23;33.20;;;20.83;;
29370;SDS011;16357;52.188;7.838;2024-03-08T01:33:49;32.58;;;20.05;;
29370;SDS011;16357;52.188;7.838;2024-03-08T01:36:16;31.92;;;21.30;;
29370;SDS011;16357;52.188;7.838;2024-03-08T01:38:44;30.52;;;20.15;;
29370;SDS011;16357;52.188;7.838;2024-03-08T01:41:11;33.47;;;20.98;;
29370;SDS011;16357;52.188;7.838;2024-03-08T01:43:39;30.90;;;20.13;;
29370;SDS011;16357;52.188;7.838;2024-03-08T01:46:05;35.72;;;21.48;;
29370;SDS011;16357;52.188;7.838;2024-03-08T01:48:35;32.28;;;21.42;;
29370;SDS011;16357;52.188;7.838;2024-03-08T01:51:02;31.25;;;20.40;;
29370;SDS011;16357;52.188;7.838;2024-03-08T01:53:29;34.55;;;21.65;;
29370;SDS011;16357;52.188;7.838;2024-03-08T01:55:57;32.33;;;21.20;;
29370;SDS011;16357;52.188;7.838;2024-03-08T01:58:24;30.05;;;20.20;;
29370;SDS011;16357;52.188;7.838;2024-03-08T02:00:54;30.20;;;20.40;;
29370;SDS011;16357;52.188;7.838;2024-03-08T02:03:22;32.08;;;19.85;;
29370;SDS011;16357;52.188;7.838;2024-03-08T02:05:49;33.58;;;20.90;;
29370;SDS011;16357;52.188;7.838;2024-03-08T02:08:16;33.25;;;21.63;;
29370;SDS011;16357;52.188;7.838;2024-03-08T02:10:45;33.55;;;20.08;;
29370;SDS011;16357;52.188;7.838;2024-03-08T02:13:12;32.60;;;21.23;;
29370;SDS011;16357;52.188;7.838;2024-03-08T02:18:20;32.13;;;20.52;;
29370;SDS011;16357;52.188;7.838;2024-03-08T02:20:55;30.50;;;20.95;;
29370;SDS011;16357;52.188;7.838;2024-03-08T02:23:23;33.05;;;21.08;;
29370;SDS011;16357;52.188;7.838;2024-03-08T02:25:51;31.92;;;21.13;;
29370;SDS011;16357;52.188;7.838;2024-03-08T02:28:19;36.08;;;21.77;;
29370;SDS011;16357;52.188;7.838;2024-03-08T02:30:47;31.90;;;21.38;;
29370;SDS011;16357;52.188;7.838;2024-03-08T02:33:14;33.42;;;21.27;;
29370;SDS011;16357;52.188;7.838;2024-03-08T02:35:44;32.28;;;20.90;;
29370;SDS011;16357;52.188;7.838;2024-03-08T02:38:13;35.05;;;22.25;;
29370;SDS011;16357;52.188;7.838;2024-03-08T02:40:45;33.38;;;21.25;;
29370;SDS011;16357;52.188;7.838;2024-03-08T02:43:12;32.38;;;21.35;;
29370;SDS011;16357;52.188;7.838;2024-03-08T02:45:40;34.47;;;22.40;;
29370;SDS011;16357;52.188;7.838;2024-03-08T02:48:11;33.30;;;21.10;;
29370;SDS011;16357;52.188;7.838;2024-03-08T02:50:39;33.22;;;21.10;;
29370;SDS011;16357;52.188;7.838;2024-03-08T02:53:08;34.72;;;21.13;;
29370;SDS011;16357;52.188;7.838;2024-03-08T02:55:36;34.58;;;22.10;;
29370;SDS011;16357;52.188;7.838;2024-03-08T02:58:02;32.83;;;21.58;;
29370;SDS011;16357;52.188;7.838;2024-03-08T03:00:30;37.47;;;21.85;;
29370;SDS011;16357;52.188;7.838;2024-03-08T03:02:57;33.72;;;21.33;;
29370;SDS011;16357;52.188;7.838;2024-03-08T03:05:23;32.05;;;21.40;;
29370;SDS011;16357;52.188;7.838;2024-03-08T03:07:50;32.25;;;21.75;;
29370;SDS011;16357;52.188;7.838;2024-03-08T03:10:18;33.47;;;20.98;;
29370;SDS011;16357;52.188;7.838;2024-03-08T03:12:45;34.78;;;21.27;;
29370;SDS011;16357;52.188;7.838;2024-03-08T03:15:12;35.22;;;22.23;;
29370;SDS011;16357;52.188;7.838;2024-03-08T03:17:40;32.35;;;21.60;;
29370;SDS011;16357;52.188;7.838;2024-03-08T03:20:07;33.42;;;21.33;;
29370;SDS011;16357;52.188;7.838;2024-03-08T03:22:40;34.47;;;22.02;;
29370;SDS011;16357;52.188;7.838;2024-03-08T03:25:07;34.90;;;22.25;;
29370;SDS011;16357;52.188;7.838;2024-03-08T03:27:35;35.65;;;22.58;;
29370;SDS011;16357;52.188;7.838;2024-03-08T03:30:03;36.03;;;22.73;;
29370;SDS011;16357;52.188;7.838;2024-03-08T03:32:48;32.90;;;21.92;;
29370;SDS011;16357;52.188;7.838;2024-03-08T03:35:16;34.47;;;21.70;;
29370;SDS011;16357;52.188;7.838;2024-03-08T03:37:47;36.08;;;21.55;;
29370;SDS011;16357;52.188;7.838;2024-03-08T03:43:00;36.17;;;20.75;;
29370;SDS011;16357;52.188;7.838;2024-03-08T03:45:27;36.03;;;21.58;;
29370;SDS011;16357;52.188;7.838;2024-03-08T03:47:54;34.03;;;20.77;;
29370;SDS011;16357;52.188;7.838;2024-03-08T03:50:21;33.33;;;21.65;;
29370;SDS011;16357;52.188;7.838;2024-03-08T03:52:48;40.88;;;22.30;;
29370;SDS011;16357;52.188;7.838;2024-03-08T03:55:15;34.90;;;22.27;;
29370;SDS011;16357;52.188;7.838;2024-03-08T03:57:44;35.13;;;21.58;;
29370;SDS011;16357;52.188;7.838;2024-03-08T04:00:12;34.00;;;22.08;;
29370;SDS011;16357;52.188;7.838;2024-03-08T04:02:39;35.40;;;22.58;;
29370;SDS011;16357;52.188;7.838;2024-03-08T04:05:06;30.88;;;20.33;;
29370;SDS011;16357;52.188;7.838;2024-03-08T04:07:34;36.45;;;22.38;;
29370;SDS011;16357;52.188;7.838;2024-03-08T04:10:03;36.00;;;22.75;;
29370;SDS011;16357;52.188;7.838;2024-03-08T04:12:33;40.40;;;23.42;;
29370;SDS011;16357;52.188;7.838;2024-03-08T04:15:00;37.35;;;23.30;;
29370;SDS011;16357;52.188;7.838;2024-03-08T04:17:27;35.65;;;22.92;;
29370;SDS011;16357;52.188;7.838;2024-03-08T04:19:53;36.70;;;23.52;;
29370;SDS011;16357;52.188;7.838;2024-03-08T04:22:20;36.53;;;22.48;;
29370;SDS011;16357;52.188;7.838;2024-03-08T04:24:46;37.70;;;22.65;;
29370;SDS011;16357;52.188;7.838;2024-03-08T04:27:13;34.50;;;22.27;;
29370;SDS011;16357;52.188;7.838;2024-03-08T04:29:40;34.00;;;22.35;;
29370;SDS011;16357;52.188;7.838;2024-03-08T04:32:08;32.03;;;21.75;;
29370;SDS011;16357;52.188;7.838;2024-03-08T04:34:34;40.03;;;23.00;;
29370;SDS011;16357;52.188;7.838;2024-03-08T04:37:01;37.33;;;23.50;;
29370;SDS011;16357;52.188;7.838;2024-03-08T04:39:28;44.72;;;23.63;;
29370;SDS011;16357;52.188;7.838;2024-03-08T04:41:55;35.85;;;22.58;;
29370;SDS011;16357;52.188;7.838;2024-03-08T04:44:28;37.05;;;23.30;;
29370;SDS011;16357;52.188;7.838;2024-03-08T04:46:55;38.08;;;24.35;;
29370;SDS011;16357;52.188;7.838;2024-03-08T04:49:21;35.28;;;22.55;;
29370;SDS011;16357;52.188;7.838;2024-03-08T04:51:48;38.00;;;23.08;;
29370;SDS011;16357;52.188;7.838;2024-03-08T04:54:15;38.40;;;23.65;;
29370;SDS011;16357;52.188;7.838;2024-03-08T04:56:41;38.38;;;24.00;;
29370;SDS011;16357;52.188;7.838;2024-03-08T04:59:08;36.25;;;23.27;;
29370;SDS011;16357;52.188;7.838;2024-03-08T05:01:34;37.65;;;23.13;;
29370;SDS011;16357;52.188;7.838;2024-03-08T05:04:04;38.17;;;23.55;;
29370;SDS011;16357;52.188;7.838;2024-03-08T05:06:35;37.33;;;23.85;;
29370;SDS011;16357;52.188;7.838;2024-03-08T05:09:03;38.50;;;23.27;;
29370;SDS011;16357;52.188;7.838;2024-03-08T05:11:40;36.13;;;23.02;;
29370;SDS011;16357;52.188;7.838;2024-03-08T05:14:07;38.05;;;23.27;;
29370;SDS011;16357;52.188;7.838;2024-03-08T05:16:34;39.10;;;23.92;;
29370;SDS011;16357;52.188;7.838;2024-03-08T05:19:00;37.20;;;23.95;;
29370;SDS011;16357;52.188;7.838;2024-03-08T05:21:27;41.70;;;25.58;;
29370;SDS011;16357;52.188;7.838;2024-03-08T05:23:55;45.42;;;25.23;;
29370;SDS011;16357;52.188;7.838;2024-03-08T05:26:21;40.22;;;24.73;;
29370;SDS011;16357;52.188;7.838;2024-03-08T05:28:48;41.03;;;25.98;;
29370;SDS011;16357;52.188;7.838;2024-03-08T05:31:21;40.30;;;25.23;;
29370;SDS011;16357;52.188;7.838;2024-03-08T05:33:51;39.10;;;23.60;;
29370;SDS011;16357;52.188;7.838;2024-03-08T05:36:17;35.38;;;23.55;;
29370;SDS011;16357;52.188;7.838;2024-03-08T05:38:44;40.42;;;24.48;;
29370;SDS011;16357;52.188;7.838;2024-03-08T05:41:10;39.60;;;24.17;;
29370;SDS011;16357;52.188;7.838;2024-03-08T05:43:38;36.20;;;24.00;;
29370;SDS011;16357;52.188;7.838;2024-03-08T05:46:06;39.40;;;22.85;;
29370;SDS011;16357;52.188;7.838;2024-03-08T05:48:33;34.20;;;21.73;;
29370;SDS011;16357;52.188;7.838;2024-03-08T05:51:00;38.22;;;23.80;;
29370;SDS011;16357;52.188;7.838;2024-03-08T05:53:28;36.22;;;23.15;;
29370;SDS011;16357;52.188;7.838;2024-03-08T05:55:58;39.38;;;24.25;;
29370;SDS011;16357;52.188;7.838;2024-03-08T05:58:25;38.63;;;23.33;;
29370;SDS011;16357;52.188;7.838;2024-03-08T06:00:51;37.28;;;24.02;;
29370;SDS011;16357;52.188;7.838;2024-03-08T06:03:19;37.15;;;23.33;;
29370;SDS011;16357;52.188;7.838;2024-03-08T06:05:48;37.67;;;23.30;;
29370;SDS011;16357;52.188;7.838;2024-03-08T06:08:15;41.22;;;24.48;;
29370;SDS011;16357;52.188;7.838;2024-03-08T06:10:42;38.50;;;23.73;;
29370;SDS011;16357;52.188;7.838;2024-03-08T06:13:09;35.70;;;23.40;;
29370;SDS011;16357;52.188;7.838;2024-03-08T06:15:38;38.80;;;24.30;;
29370;SDS011;16357;52.188;7.838;2024-03-08T06:18:05;38.08;;;23.75;;
29370;SDS011;16357;52.188;7.838;2024-03-08T06:20:32;36.75;;;24.02;;
29370;SDS011;16357;52.188;7.838;2024-03-08T06:22:59;42.58;;;23.77;;
29370;SDS011;16357;52.188;7.838;2024-03-08T06:25:26;37.53;;;22.95;;
29370;SDS011;16357;52.188;7.838;2024-03-08T06:28:01;40.63;;;24.17;;
29370;SDS011;16357;52.188;7.838;2024-03-08T06:32:54;34.95;;;21.52;;
29370;SDS011;16357;52.188;7.838;2024-03-08T06:35:21;35.72;;;21.98;;
29370;SDS011;16357;52.188;7.838;2024-03-08T06:37:47;38.72;;;22.45;;
29370;SDS011;16357;52.188;7.838;2024-03-08T06:40:14;37.50;;;22.38;;
29370;SDS011;16357;52.188;7.838;2024-03-08T06:42:40;38.30;;;23.35;;
29370;SDS011;16357;52.188;7.838;2024-03-08T06:45:07;39.53;;;22.73;;
29370;SDS011;16357;52.188;7.838;2024-03-08T06:47:36;37.20;;;22.77;;
29370;SDS011;16357;52.188;7.838;2024-03-08T06:50:03;33.38;;;22.63;;
29370;SDS011;16357;52.188;7.838;2024-03-08T06:52:30;39.28;;;23.73;;
29370;SDS011;16357;52.188;7.838;2024-03-08T06:54:57;43.28;;;23.15;;
29370;SDS011;16357;52.188;7.838;2024-03-08T06:57:24;37.63;;;23.63;;
29370;SDS011;16357;52.188;7.838;2024-03-08T06:59:50;40.28;;;23.63;;
29370;SDS011;16357;52.188;7.838;2024-03-08T07:02:18;38.35;;;23.25;;
29370;SDS011;16357;52.188;7.838;2024-03-08T07:04:45;40.38;;;23.67;;
29370;SDS011;16357;52.188;7.838;2024-03-08T07:07:11;36.85;;;23.45;;
29370;SDS011;16357;52.188;7.838;2024-03-08T07:09:38;42.47;;;24.95;;
29370;SDS011;16357;52.188;7.838;2024-03-08T07:12:05;41.53;;;24.98;;
29370;SDS011;16357;52.188;7.838;2024-03-08T07:14:32;36.28;;;23.45;;
29370;SDS011;16357;52.188;7.838;2024-03-08T07:16:59;39.08;;;24.00;;
29370;SDS011;16357;52.188;7.838;2024-03-08T07:19:27;44.00;;;25.30;;
29370;SDS011;16357;52.188;7.838;2024-03-08T07:21:53;39.38;;;23.25;;
29370;SDS011;16357;52.188;7.838;2024-03-08T07:24:21;39.22;;;24.33;;
29370;SDS011;16357;52.188;7.838;2024-03-08T07:26:59;36.65;;;22.90;;
29370;SDS011;16357;52.188;7.838;2024-03-08T07:29:26;38.85;;;23.23;;
29370;SDS011;16357;52.188;7.838;2024-03-08T07:31:52;41.17;;;23.13;;
29370;SDS011;16357;52.188;7.838;2024-03-08T07:34:43;36.30;;;22.77;;
29370;SDS011;16357;52.188;7.838;2024-03-08T07:37:10;39.28;;;22.98;;
29370;SDS011;16357;52.188;7.838;2024-03-08T07:39:39;40.13;;;24.92;;
29370;SDS011;16357;52.188;7.838;2024-03-08T07:42:06;37.35;;;22.92;;
29370;SDS011;16357;52.188;7.838;2024-03-08T07:44:33;38.47;;;24.40;;
29370;SDS011;16357;52.188;7.838;2024-03-08T07:46:59;40.90;;;24.63;;
29370;SDS011;16357;52.188;7.838;2024-03-08T07:49:26;38.35;;;24.42;;
29370;SDS011;16357;52.188;7.838;2024-03-08T07:51:52;39.80;;;24.13;;
29370;SDS011;16357;52.188;7.838;2024-03-08T07:54:19;35.35;;;23.88;;
29370;SDS011;16357;52.188;7.838;2024-03-08T07:56:46;40.40;;;24.23;;
29370;SDS011;16357;52.188;7.838;2024-03-08T07:59:13;38.50;;;24.10;;
29370;SDS011;16357;52.188;7.838;2024-03-08T08:01:39;39.70;;;25.30;;
29370;SDS011;16357;52.188;7.838;2024-03-08T08:04:06;37.90;;;24.77;;
29370;SDS011;16357;52.188;7.838;2024-03-08T08:06:32;42.47;;;25.98;;
29370;SDS011;16357;52.188;7.838;2024-03-08T08:08:59;37.60;;;25.00;;
29370;SDS011;16357;52.188;7.838;2024-03-08T08:11:27;41.08;;;25.38;;
29370;SDS011;16357;52.188;7.838;2024-03-08T08:13:57;38.83;;;25.45;;
29370;SDS011;16357;52.188;7.838;2024-03-08T08:16:23;42.40;;;25.50;;
29370;SDS011;16357;52.188;7.838;2024-03-08T08:18:52;38.90;;;25.40;;
29370;SDS011;16357;52.188;7.838;2024-03-08T08:21:28;39.47;;;24.95;;
29370;SDS011;16357;52.188;7.838;2024-03-08T08:23:55;37.80;;;25.17;;
29370;SDS011;16357;52.188;7.838;2024-03-08T08:26:21;46.42;;;25.33;;
29370;SDS011;16357;52.188;7.838;2024-03-08T08:28:48;37.60;;;23.25;;
29370;SDS011;16357;52.188;7.838;2024-03-08T08:31:15;37.40;;;24.33;;
29370;SDS011;16357;52.188;7.838;2024-03-08T08:33:42;36.42;;;22.88;;
29370;SDS011;16357;52.188;7.838;2024-03-08T08:36:10;37.15;;;24.95;;
29370;SDS011;16357;52.188;7.838;2024-03-08T08:38:37;36.88;;;24.35;;
29370;SDS011;16357;52.188;7.838;2024-03-08T08:41:04;39.15;;;24.50;;
29370;SDS011;16357;52.188;7.838;2024-03-08T08:43:31;38.33;;;24.27;;
29370;SDS011;16357;52.188;7.838;2024-03-08T08:46:00;36.70;;;23.15;;
29370;SDS011;16357;52.188;7.838;2024-03-08T08:48:27;39.85;;;24.77;;
29370;SDS011;16357;52.188;7.838;2024-03-08T08:50:55;37.28;;;24.38;;
29370;SDS011;16357;52.188;7.838;2024-03-08T08:53:21;38.97;;;24.08;;
29370;SDS011;16357;52.188;7.838;2024-03-08T08:55:48;37.67;;;23.52;;
29370;SDS011;16357;52.188;7.838;2024-03-08T08:58:15;36.65;;;23.80;;
29370;SDS011;16357;52.188;7.838;2024-03-08T09:00:41;37.35;;;23.92;;
29370;SDS011;16357;52.188;7.838;2024-03-08T09:03:08;36.10;;;23.42;;
29370;SDS011;16357;52.188;7.838;2024-03-08T09:05:34;35.13;;;23.52;;
29370;SDS011;16357;52.188;7.838;2024-03-08T09:08:04;38.00;;;23.40;;
29370;SDS011;16357;52.188;7.838;2024-03-08T09:10:31;32.92;;;21.73;;
29370;SDS011;16357;52.188;7.838;2024-03-08T09:13:00;37.30;;;23.95;;
29370;SDS011;16357;52.188;7.838;2024-03-08T09:15:28;39.22;;;23.73;;
29370;SDS011;16357;52.188;7.838;2024-03-08T09:17:55;37.78;;;23.42;;
29370;SDS011;16357;52.188;7.838;2024-03-08T09:20:22;38.40;;;24.50;;
29370;SDS011;16357;52.188;7.838;2024-03-08T09:22:49;40.00;;;25.58;;
29370;SDS011;16357;52.188;7.838;2024-03-08T09:25:15;33.55;;;23.52;;
29370;SDS011;16357;52.188;7.838;2024-03-08T09:27:42;37.95;;;23.50;;
29370;SDS011;16357;52.188;7.838;2024-03-08T09:30:09;36.00;;;22.90;;
29370;SDS011;16357;52.188;7.838;2024-03-08T09:32:39;35.72;;;23.67;;
29370;SDS011;16357;52.188;7.838;2024-03-08T09:35:05;36.97;;;23.40;;
29370;SDS011;16357;52.188;7.838;2024-03-08T09:37:35;37.75;;;24.90;;
29370;SDS011;16357;52.188;7.838;2024-03-08T09:40:02;35.55;;;24.17;;
29370;SDS011;16357;52.188;7.838;2024-03-08T09:42:31;35.65;;;23.33;;
29370;SDS011;16357;52.188;7.838;2024-03-08T09:44:58;34.45;;;23.63;;
29370;SDS011;16357;52.188;7.838;2024-03-08T09:47:25;34.00;;;22.92;;
29370;SDS011;16357;52.188;7.838;2024-03-08T09:49:59;36.28;;;22.92;;
29370;SDS011;16357;52.188;7.838;2024-03-08T09:52:27;34.60;;;22.92;;
29370;SDS011;16357;52.188;7.838;2024-03-08T09:54:57;32.70;;;22.33;;
29370;SDS011;16357;52.188;7.838;2024-03-08T09:57:24;32.85;;;22.67;;
29370;SDS011;16357;52.188;7.838;2024-03-08T09:59:51;36.33;;;22.75;;
29370;SDS011;16357;52.188;7.838;2024-03-08T10:02:18;34.30;;;23.60;;
29370;SDS011;16357;52.188;7.838;2024-03-08T10:04:45;39.63;;;25.27;;
29370;SDS011;16357;52.188;7.838;2024-03-08T10:07:13;35.28;;;23.83;;
29370;SDS011;16357;52.188;7.838;2024-03-08T10:09:39;36.05;;;24.17;;
29370;SDS011;16357;52.188;7.838;2024-03-08T10:12:07;37.15;;;24.40;;
29370;SDS011;16357;52.188;7.838;2024-03-08T10:14:38;35.72;;;24.48;;
29370;SDS011;16357;52.188;7.838;2024-03-08T10:17:05;36.42;;;24.55;;
29370;SDS011;16357;52.188;7.838;2024-03-08T10:19:33;35.38;;;24.60;;
29370;SDS011;16357;52.188;7.838;2024-03-08T10:22:00;35.88;;;23.95;;
29370;SDS011;16357;52.188;7.838;2024-03-08T10:24:27;36.60;;;24.20;;
29370;SDS011;16357;52.188;7.838;2024-03-08T10:26:53;34.15;;;23.88;;
29370;SDS011;16357;52.188;7.838;2024-03-08T10:29:24;40.85;;;25.45;;
29370;SDS011;16357;52.188;7.838;2024-03-08T10:31:51;35.65;;;23.83;;
29370;SDS011;16357;52.188;7.838;2024-03-08T10:34:18;34.53;;;22.92;;
29370;SDS011;16357;52.188;7.838;2024-03-08T10:36:44;30.83;;;20.98;;
29370;SDS011;16357;52.188;7.838;2024-03-08T10:39:22;30.70;;;21.42;;
29370;SDS011;16357;52.188;7.838;2024-03-08T10:42:02;30.30;;;19.65;;
29370;SDS011;16357;52.188;7.838;2024-03-08T10:47:00;32.78;;;22.02;;
29370;SDS011;16357;52.188;7.838;2024-03-08T10:52:16;31.88;;;22.08;;
29370;SDS011;16357;52.188;7.838;2024-03-08T10:54:45;29.58;;;21.58;;
29370;SDS011;16357;52.188;7.838;2024-03-08T10:57:14;32.03;;;21.40;;
29370;SDS011;16357;52.188;7.838;2024-03-08T10:59:43;31.67;;;21.70;;
29370;SDS011;16357;52.188;7.838;2024-03-08T11:02:13;30.42;;;22.20;;
29370;SDS011;16357;52.188;7.838;2024-03-08T11:04:48;31.77;;;22.40;;
29370;SDS011;16357;52.188;7.838;2024-03-08T11:07:16;34.75;;;22.17;;
29370;SDS011;16357;52.188;7.838;2024-03-08T11:09:44;33.10;;;22.80;;
29370;SDS011;16357;52.188;7.838;2024-03-08T11:12:22;31.20;;;22.05;;
29370;SDS011;16357;52.188;7.838;2024-03-08T11:14:59;29.17;;;21.50;;
29370;SDS011;16357;52.188;7.838;2024-03-08T11:19:57;28.98;;;20.83;;
29370;SDS011;16357;52.188;7.838;2024-03-08T11:22:28;25.10;;;18.35;;
29370;SDS011;16357;52.188;7.838;2024-03-08T11:25:01;24.13;;;17.23;;
29370;SDS011;16357;52.188;7.838;2024-03-08T11:27:31;25.33;;;18.02;;
29370;SDS011;16357;52.188;7.838;2024-03-08T11:30:05;23.23;;;17.13;;
29370;SDS011;16357;52.188;7.838;2024-03-08T11:32:46;23.95;;;16.95;;
29370;SDS011;16357;52.188;7.838;2024-03-08T11:35:20;23.48;;;16.35;;
29370;SDS011;16357;52.188;7.838;2024-03-08T11:37:49;20.80;;;15.93;;
29370;SDS011;16357;52.188;7.838;2024-03-08T11:40:15;22.42;;;15.75;;
29370;SDS011;16357;52.188;7.838;2024-03-08T11:42:46;22.25;;;16.48;;
29370;SDS011;16357;52.188;7.838;2024-03-08T11:45:18;27.63;;;17.02;;
29370;SDS011;16357;52.188;7.838;2024-03-08T11:47:47;26.17;;;17.45;;
29370;SDS011;16357;52.188;7.838;2024-03-08T11:50:16;24.10;;;17.27;;
29370;SDS011;16357;52.188;7.838;2024-03-08T11:52:46;23.38;;;16.38;;
29370;SDS011;16357;52.188;7.838;2024-03-08T11:55:13;28.42;;;18.15;;
29370;SDS011;16357;52.188;7.838;2024-03-08T11:57:40;22.42;;;15.70;;
29370;SDS011;16357;52.188;7.838;2024-03-08T12:00:14;25.10;;;17.08;;
29370;SDS011;16357;52.188;7.838;2024-03-08T12:03:00;24.75;;;17.38;;
29370;SDS011;16357;52.188;7.838;2024-03-08T12:05:28;22.77;;;16.98;;
29370;SDS011;16357;52.188;7.838;2024-03-08T12:07:58;27.60;;;17.70;;
29370;SDS011;16357;52.188;7.838;2024-03-08T12:10:25;25.15;;;17.75;;
29370;SDS011;16357;52.188;7.838;2024-03-08T12:12:53;26.15;;;18.40;;
29370;SDS011;16357;52.188;7.838;2024-03-08T12:15:21;30.30;;;17.92;;
29370;SDS011;16357;52.188;7.838;2024-03-08T12:17:52;25.70;;;17.98;;
29370;SDS011;16357;52.188;7.838;2024-03-08T12:20:23;26.50;;;18.70;;
29370;SDS011;16357;52.188;7.838;2024-03-08T12:22:52;26.40;;;19.23;;
29370;SDS011;16357;52.188;7.838;2024-03-08T12:25:20;25.42;;;18.85;;
29370;SDS011;16357;52.188;7.838;2024-03-08T12:27:47;27.27;;;19.08;;
29370;SDS011;16357;52.188;7.838;2024-03-08T12:30:23;31.95;;;19.98;;
29370;SDS011;16357;52.188;7.838;2024-03-08T12:32:57;27.17;;;19.40;;
29370;SDS011;16357;52.188;7.838;2024-03-08T12:35:25;30.65;;;19.52;;
29370;SDS011;16357;52.188;7.838;2024-03-08T12:37:55;30.02;;;20.20;;
29370;SDS011;16357;52.188;7.838;2024-03-08T12:40:26;28.92;;;20.20;;
29370;SDS011;16357;52.188;7.838;2024-03-08T12:42:55;29.25;;;20.05;;
29370;SDS011;16357;52.188;7.838;2024-03-08T12:45:35;26.38;;;19.90;;
29370;SDS011;16357;52.188;7.838;2024-03-08T12:48:01;28.25;;;19.60;;
29370;SDS011;16357;52.188;7.838;2024-03-08T12:50:29;31.33;;;20.10;;
29370;SDS011;16357;52.188;7.838;2024-03-08T12:52:56;30.00;;;19.77;;
29370;SDS011;16357;52.188;7.838;2024-03-08T12:55:23;28.92;;;19.40;;
29370;SDS011;16357;52.188;7.838;2024-03-08T12:57:49;24.52;;;17.45;;
29370;SDS011;16357;52.188;7.838;2024-03-08T13:00:16;24.02;;;17.88;;
29370;SDS011;16357;52.188;7.838;2024-03-08T13:02:46;27.05;;;18.98;;
29370;SDS011;16357;52.188;7.838;2024-03-08T13:05:13;24.13;;;16.88;;
29370;SDS011;16357;52.188;7.838;2024-03-08T13:07:41;23.60;;;17.00;;
29370;SDS011;16357;52.188;7.838;2024-03-08T13:10:13;24.50;;;17.30;;
29370;SDS011;16357;52.188;7.838;2024-03-08T13:12:42;23.08;;;16.55;;
29370;SDS011;16357;52.188;7.838;2024-03-08T13:15:09;25.00;;;17.63;;
29370;SDS011;16357;52.188;7.838;2024-03-08T13:17:41;23.88;;;17.27;;
29370;SDS011;16357;52.188;7.838;2024-03-08T13:20:08;23.95;;;16.95;;
29370;SDS011;16357;52.188;7.838;2024-03-08T13:22:35;28.00;;;18.42;;
29370;SDS011;16357;52.188;7.838;2024-03-08T13:25:02;28.38;;;18.45;;
29370;SDS011;16357;52.188;7.838;2024-03-08T13:27:29;26.58;;;19.13;;
29370;SDS011;16357;52.188;7.838;2024-03-08T13:29:55;25.88;;;18.13;;
29370;SDS011;16357;52.188;7.838;2024-03-08T13:32:22;29.13;;;19.55;;
29370;SDS011;16357;52.188;7.838;2024-03-08T13:34:49;25.20;;;17.92;;
29370;SDS011;16357;52.188;7.838;2024-03-08T13:37:17;24.45;;;17.33;;
29370;SDS011;16357;52.188;7.838;2024-03-08T13:39:45;23.50;;;16.95;;
29370;SDS011;16357;52.188;7.838;2024-03-08T13:42:12;26.15;;;17.10;;
29370;SDS011;16357;52.188;7.838;2024-03-08T13:44:42;22.58;;;16.65;;
29370;SDS011;16357;52.188;7.838;2024-03-08T13:47:10;24.75;;;17.20;;
29370;SDS011;16357;52.188;7.838;2024-03-08T13:49:38;24.25;;;16.92;;
29370;SDS011;16357;52.188;7.838;2024-03-08T13:52:04;26.02;;;17.63;;
29370;SDS011;16357;52.188;7.838;2024-03-08T13:54:31;22.73;;;16.55;;
29370;SDS011;16357;52.188;7.838;2024-03-08T13:56:58;25.88;;;17.35;;
29370;SDS011;16357;52.188;7.838;2024-03-08T13:59:24;23.58;;;16.85;;
29370;SDS011;16357;52.188;7.838;2024-03-08T14:01:55;23.08;;;16.92;;
29370;SDS011;16357;52.188;7.838;2024-03-08T14:04:23;26.00;;;18.38;;
29370;SDS011;16357;52.188;7.838;2024-03-08T14:06:50;26.88;;;18.50;;
29370;SDS011;16357;52.188;7.838;2024-03-08T14:09:17;25.98;;;18.48;;
29370;SDS011;16357;52.188;7.838;2024-03-08T14:11:45;26.02;;;18.30;;
29370;SDS011;16357;52.188;7.838;2024-03-08T14:14:12;28.63;;;19.15;;
29370;SDS011;16357;52.188;7.838;2024-03-08T14:16:39;28.95;;;18.60;;
29370;SDS011;16357;52.188;7.838;2024-03-08T14:19:05;26.58;;;18.02;;
29370;SDS011;16357;52.188;7.838;2024-03-08T14:21:32;24.45;;;17.95;;
29370;SDS011;16357;52.188;7.838;2024-03-08T14:23:59;27.58;;;18.63;;
29370;SDS011;16357;52.188;7.838;2024-03-08T14:26:26;26.27;;;18.42;;
29370;SDS011;16357;52.188;7.838;2024-03-08T14:28:52;25.10;;;17.73;;
29370;SDS011;16357;52.188;7.838;2024-03-08T14:31:20;27.20;;;18.77;;
29370;SDS011;16357;52.188;7.838;2024-03-08T14:33:52;26.55;;;19.17;;
29370;SDS011;16357;52.188;7.838;2024-03-08T14:36:19;27.13;;;18.52;;
29370;SDS011;16357;52.188;7.838;2024-03-08T14:38:51;29.33;;;19.05;;
29370;SDS011;16357;52.188;7.838;2024-03-08T14:41:18;26.55;;;18.50;;